Dade City, FL

2:09 PM EDT on September 16, 2014 (GMT -0400)
Dade City at Blanton | Change Station
CLOSE
Current Station
Personal Weather Station
Location: Dade City, FL
Elevation: 170 ft
Nearby Weather Stations

Elev 170 ft 28.40 °N, 82.25 °W | Updated 1 minute ago

Mostly Cloudy
Mostly Cloudy
86.1 °F
Feels Like 92 °F
N
2.0
Wind Variable Wind from WNW
Gusts 2.0 mph

Today
High -- | Low -- °F
--% Chance of Precip.
Yesterday
High -- | Low -- °F
Precip. -- in
7:14 AM 7:32 PM
Last Quarter, 43% visible
Pressure 30.07 in
Visibility 10.0 miles
Clouds Scattered Clouds 3600 ft
Mostly Cloudy 4300 ft
Mostly Cloudy 8500 ft
Heat Index 92 °F
Dew Point 72 °F
Humidity 62%
Rainfall 0.00 in
Snow Depth Not available.
UV 7 out of 12
Pollen 6.70 out of 12
Air Quality Not available.
Flu Activity Not available.
METAR KZPH 161755Z AUTO 25016G22KT 10SM SCT036 BKN043 BKN085 28/19 A3007 RMK AO2 P0002 LTG DSNT W AND NW

More Conditions Fewer Conditions

Pressure 30.07 in
Visibility 10.0 miles
Clouds Scattered Clouds 3600 ft
Mostly Cloudy 4300 ft
Mostly Cloudy 8500 ft
Heat Index 92 °F
Dew Point 72 °F
Humidity 62%
Rainfall 0.00 in
Snow Depth Not available.
UV 7 out of 12
Pollen 6.70 out of 12
Air Quality Not available.
Flu Activity Not available.
METAR KZPH 161755Z AUTO 25016G22KT 10SM SCT036 BKN043 BKN085 28/19 A3007 RMK AO2 P0002 LTG DSNT W AND NW

More Conditions Fewer Conditions

10-Day Weather Forecast

Almanac

Astronomy

Sep. 16, 2014 Rise Set
Actual Time 7:14 AM EDT 7:32 PM EDT
Civil Twilight 6:50 AM EDT 7:56 PM EDT
Nautical Twilight 6:23 AM EDT 8:23 PM EDT
Astronomical Twilight 5:55 AM EDT 8:51 PM EDT
Moon 12:44 AM EDT 2:34 PM EDT
Length of Visible Light 13h 05m
Length of Day
12h 18m
Tomorrow will be 1m 41s shorter.
Last Quarter, 43% of the Moon is Illuminated
Today
Last Quarter
Sep 24
New
Oct 1
First Quarter
Oct 8
Full
Oct 15
Last Quarter

Today's Extremes

State Highs State Lows

Community

WunderPhotos

Upload Photos

1,753,848 photos uploaded!

Nearby

Snow Depth

Station Depth Elevation
No new snow has been reported.

Earthquake Activity

City Distance Mag. Time & Date
No recent earthquake activity has been reported nearby.
Minimum magnitude displayed is 2.5.

Coastal Water Temperatures

Place Temperature
No Stations Reporting

Nearby Weather Stations